Grand Princess — ZCBU5 — position and weather

sailwx.info

Track history (hours):
 
Tides and Currents Weather Stations Pressure Air Temp Water Temp Dewpoint Dewpoint Depression Visibility Wind Speed Wind Dir Waves Ship Positions

Grand Princess

Operator: Princess Cruises

Last reported at 2017-Sep-26 14:26 UTC. Time now 2017-Sep-26 14:53 UTC.
Position N 34°18' W 120°57'.

Length 289.5 m; beam 36 m; draft 8.5 m.

Type: Passenger vessel. MMSI: 310327000.

Date/timePositionNaut miles runAvg speedWind from/ knotsBaromVisibWave heightAir tempDewpointWater temp
2017-Sep-26 14:26N 34°18' W 120°57'817.0
2017-Sep-26 13:59N 34°24' W 121°02'817.3
2017-Sep-26 13:30N 34°32' W 121°06'817.2
2017-Sep-26 13:01N 34°39' W 121°11'917.3
2017-Sep-26 12:31N 34°47' W 121°16'917.7
2017-Sep-26 12:01N 34°55' W 121°21'917.7
2017-Sep-26 11:31N 35°02' W 121°27'917.6
2017-Sep-26 11:01N 35°10' W 121°32'917.7
2017-Sep-26 10:30N 35°18' W 121°37'917.5
2017-Sep-26 10:00N 35°25' W 121°43'917.3
2017-Sep-26 09:30N 35°32' W 121°49'917.2
2017-Sep-26 09:01N 35°40' W 121°54'917.3
2017-Sep-26 08:30N 35°47' W 121°59'917.5
2017-Sep-26 08:00N 35°56' W 122°03'917.8
2017-Sep-26 07:30N 36°03' W 122°08'918.0
2017-Sep-26 07:01N 36°11' W 122°14'917.3
2017-Sep-26 06:31N 36°19' W 122°19'917.0
2017-Sep-26 06:00N 36°27' W 122°23'917.1
2017-Sep-26 05:31N 36°35' W 122°27'917.6
2017-Sep-26 05:01N 36°43' W 122°31'917.3
2017-Sep-26 04:31N 36°51' W 122°34'917.2
2017-Sep-26 04:01N 36°59' W 122°38'917.1
2017-Sep-26 03:31N 37°07' W 122°42'815.9
2017-Sep-26 03:01N 37°15' W 122°43'612.2
2017-Sep-26 02:30N 37°21' W 122°43'510.8
2017-Sep-26 02:00N 37°26' W 122°43'510.7
2017-Sep-26 01:30N 37°32' W 122°43'510.7
2017-Sep-26 01:00N 37°37' W 122°43'611.5
2017-Sep-26 00:30N 37°43' W 122°42'510.1
2017-Sep-26 00:01N 37°46' W 122°37'816.2
2017-Sep-25 23:31N 37°49' W 122°28'3 5.9
2017-Sep-25 22:59N 37°48' W 122°24'0 0.0
2017-Sep-25 22:28N 37°48' W 122°24'0 0.0
2017-Sep-25 21:58N 37°48' W 122°24'0 0.0
2017-Sep-25 21:28N 37°48' W 122°24'0 0.0
2017-Sep-25 20:58N 37°48' W 122°24'0 0.0
2017-Sep-25 20:28N 37°48' W 122°24'0 0.0
2017-Sep-25 19:57N 37°48' W 122°24'0 0.0
2017-Sep-25 19:30N 37°48' W 122°24'0 0.0
2017-Sep-25 19:00N 37°48' W 122°24'0 0.0
2017-Sep-25 18:30N 37°48' W 122°24'0 0.0
2017-Sep-25 18:00N 37°48' W 122°24'0 0.0
2017-Sep-25 17:29N 37°48' W 122°24'0 0.0
2017-Sep-25 16:59N 37°48' W 122°24'0 0.0
2017-Sep-25 16:23N 37°48' W 122°24'0 0.0
2017-Sep-25 15:59N 37°48' W 122°24'0 0.0
2017-Sep-25 15:25N 37°48' W 122°24'0 0.0
2017-Sep-25 14:58N 37°48' W 122°24'0 0.0
2017-Sep-25 14:28N 37°48' W 122°24'0 0.0
2017-Sep-25 13:58N 37°48' W 122°24'0 0.2
2017-Sep-25 13:30N 37°48' W 122°24'1 1.4
2017-Sep-25 13:01N 37°49' W 122°25'611.5
2017-Sep-25 12:31N 37°48' W 122°32'815.1
2017-Sep-25 12:00N 37°46' W 122°41'510.6
2017-Sep-25 11:30N 37°47' W 122°48'510.3
2017-Sep-25 11:00N 37°50' W 122°53'510.3
2017-Sep-25 10:30N 37°52' W 122°59'510.4
2017-Sep-25 10:00N 37°55' W 123°05'510.2
2017-Sep-25 09:30N 37°58' W 123°10'510.2
2017-Sep-25 09:00N 38°01' W 123°15'510.2
2017-Sep-25 08:30N 38°05' W 123°19'510.5
2017-Sep-25 08:01N 38°09' W 123°23'817.0
2017-Sep-25 07:31N 38°16' W 123°29'917.7
2017-Sep-25 07:01N 38°24' W 123°35'918.2
2017-Sep-25 06:30N 38°32' W 123°41'918.3
2017-Sep-25 06:00N 38°40' W 123°46'917.5
2017-Sep-25 05:31N 38°47' W 123°52'1019.6
2017-Sep-25 05:01N 38°56' W 123°58'35020.7
2017-Sep-24 12:09N 44°42' W 125°05'2021.5
2017-Sep-24 11:14N 45°02' W 125°07'721.2
2017-Sep-24 10:55N 45°08' W 125°07'921.5
2017-Sep-24 10:31N 45°17' W 125°04'1121.4
2017-Sep-24 10:01N 45°27' W 125°04'1121.4
2017-Sep-24 09:31N 45°38' W 125°07'1221.6
2017-Sep-24 08:57N 45°50' W 125°09'1021.6
2017-Sep-24 08:30N 45°59' W 125°10'1121.6
2017-Sep-24 08:01N 46°10' W 125°11'1121.5
2017-Sep-24 07:31N 46°21' W 125°12'1121.1
2017-Sep-24 07:00N 46°31' W 125°13'1121.4
2017-Sep-24 06:30N 46°42' W 125°13'1121.7
2017-Sep-24 06:01N 46°53' W 125°14'1121.6
2017-Sep-24 05:29N 47°04' W 125°15'5321.0
2017-Sep-24 02:58N 47°57' W 125°17'1120.4
2017-Sep-24 02:26N 48°07' W 125°13'921.0
2017-Sep-24 02:01N 48°16' W 125°10'5294.9
2017-Sep-24 02:00N 48°12' W 125°06'1427.8 170 / 51019.610.8 14.013.110.0
2017-Sep-24 01:30N 48°26' W 125°06'918.0
2017-Sep-24 01:00N 48°31' W 124°54'1019.4
2017-Sep-24 00:30N 48°30' W 124°40'1019.5
2017-Sep-24 00:00N 48°26' W 124°26'918.8
2017-Sep-23 23:30N 48°22' W 124°13'1019.0
2017-Sep-23 23:00N 48°19' W 123°60'1019.3
2017-Sep-23 22:30N 48°17' W 123°46'918.7
2017-Sep-23 22:00N 48°16' W 123°32'816.1
2017-Sep-23 21:30N 48°22' W 123°25'3 5.4
2017-Sep-23 20:59N 48°25' W 123°24'0 0.0
2017-Sep-23 20:29N 48°25' W 123°24'0 0.0
2017-Sep-23 19:59N 48°25' W 123°24'68 5.7
2017-Sep-23 08:00N 48°24' W 125°06'33318.5 150 / 71017.810.8 13.012.114.0
2017-Sep-22 14:00N 52°00' W 131°42'38811.4 270 / 101019.8 5.4 13.012.114.0
2017-Sep-21 04:07N 58°08' W 135°13'4 8.4
2017-Sep-21 03:37N 58°10' W 135°21'2 8.2
2017-Sep-21 03:21N 58°10' W 135°25'129 3.0
2017-Sep-19 09:00N 56°06' W 134°18'14123.6 180 / 51006.8 5.4 12.0 7.912.0
2017-Sep-19 03:00N 55°36' W 130°12'67 4.9 240 / 51005.8 5.4 12.0 7.912.0
2017-Sep-18 13:19N 54°39' W 131°14'722.0
2017-Sep-18 13:00N 54°32' W 131°15'1223.7
2017-Sep-18 12:30N 54°21' W 131°06'1222.9
2017-Sep-18 12:00N 54°10' W 131°01'1122.3
2017-Sep-18 11:31N 53°59' W 130°59'1121.8
2017-Sep-18 11:00N 53°48' W 130°58'11422.7
2017-Sep-18 06:00N 52°00' W 130°00'8521.2 240 / 161002.710.8 12.0 7.915.0
2017-Sep-18 02:00N 50°42' W 129°06'80 9.9 250 / 151004.310.8 12.0 6.816.0
2017-Sep-17 18:00N 49°24' W 128°42'6917.2 290 / 301005.010.8 13.5 8.516.0
2017-Sep-17 14:00N 48°18' W 128°12'13819.7 310 / 321014.2 5.4 14.512.718.0
2017-Sep-17 07:00N 46°06' W 127°12'2525.4 230 / 211014.010.8 17.011.520.0
2017-Sep-17 06:00N 45°42' W 127°00'7518.8 260 / 151014.010.8 17.011.520.0
2017-Sep-17 02:00N 44°30' W 126°30'15819.7 330 / 101015.310.8 17.513.117.0
2017-Sep-16 18:00N 42°00' W 125°24'   360 / 251015.010.8 16.513.917.0
Track history (hours):
 
Tides and Currents Weather Stations Pressure Air Temp Water Temp Dewpoint Dewpoint Depression Visibility Wind Speed Wind Dir Waves Ship Positions

Grand Princess

Operator: Princess Cruises

Last reported at 2017-Sep-26 14:26 UTC. Time now 2017-Sep-26 14:53 UTC.
Position N 34°18' W 120°57'.

Length 289.5 m; beam 36 m; draft 8.5 m.

Type: Passenger vessel. MMSI: 310327000.

Date/timePositionNaut miles runAvg speedWind from/ knotsBaromVisibWave heightAir tempDewpointWater temp
2017-Sep-26 14:26N 34°18' W 120°57'817.0
2017-Sep-26 13:59N 34°24' W 121°02'817.3
2017-Sep-26 13:30N 34°32' W 121°06'817.2
2017-Sep-26 13:01N 34°39' W 121°11'917.3
2017-Sep-26 12:31N 34°47' W 121°16'917.7
2017-Sep-26 12:01N 34°55' W 121°21'917.7
2017-Sep-26 11:31N 35°02' W 121°27'917.6
2017-Sep-26 11:01N 35°10' W 121°32'917.7
2017-Sep-26 10:30N 35°18' W 121°37'917.5
2017-Sep-26 10:00N 35°25' W 121°43'917.3
2017-Sep-26 09:30N 35°32' W 121°49'917.2
2017-Sep-26 09:01N 35°40' W 121°54'917.3
2017-Sep-26 08:30N 35°47' W 121°59'917.5
2017-Sep-26 08:00N 35°56' W 122°03'917.8
2017-Sep-26 07:30N 36°03' W 122°08'918.0
2017-Sep-26 07:01N 36°11' W 122°14'917.3
2017-Sep-26 06:31N 36°19' W 122°19'917.0
2017-Sep-26 06:00N 36°27' W 122°23'917.1
2017-Sep-26 05:31N 36°35' W 122°27'917.6
2017-Sep-26 05:01N 36°43' W 122°31'917.3
2017-Sep-26 04:31N 36°51' W 122°34'917.2
2017-Sep-26 04:01N 36°59' W 122°38'917.1
2017-Sep-26 03:31N 37°07' W 122°42'815.9
2017-Sep-26 03:01N 37°15' W 122°43'612.2
2017-Sep-26 02:30N 37°21' W 122°43'510.8
2017-Sep-26 02:00N 37°26' W 122°43'510.7
2017-Sep-26 01:30N 37°32' W 122°43'510.7
2017-Sep-26 01:00N 37°37' W 122°43'611.5
2017-Sep-26 00:30N 37°43' W 122°42'510.1
2017-Sep-26 00:01N 37°46' W 122°37'816.2
2017-Sep-25 23:31N 37°49' W 122°28'3 5.9
2017-Sep-25 22:59N 37°48' W 122°24'0 0.0
2017-Sep-25 22:28N 37°48' W 122°24'0 0.0
2017-Sep-25 21:58N 37°48' W 122°24'0 0.0
2017-Sep-25 21:28N 37°48' W 122°24'0 0.0
2017-Sep-25 20:58N 37°48' W 122°24'0 0.0
2017-Sep-25 20:28N 37°48' W 122°24'0 0.0
2017-Sep-25 19:57N 37°48' W 122°24'0 0.0
2017-Sep-25 19:30N 37°48' W 122°24'0 0.0
2017-Sep-25 19:00N 37°48' W 122°24'0 0.0
2017-Sep-25 18:30N 37°48' W 122°24'0 0.0
2017-Sep-25 18:00N 37°48' W 122°24'0 0.0
2017-Sep-25 17:29N 37°48' W 122°24'0 0.0
2017-Sep-25 16:59N 37°48' W 122°24'0 0.0
2017-Sep-25 16:23N 37°48' W 122°24'0 0.0
2017-Sep-25 15:59N 37°48' W 122°24'0 0.0
2017-Sep-25 15:25N 37°48' W 122°24'0 0.0
2017-Sep-25 14:58N 37°48' W 122°24'0 0.0
2017-Sep-25 14:28N 37°48' W 122°24'0 0.0
2017-Sep-25 13:58N 37°48' W 122°24'0 0.2
2017-Sep-25 13:30N 37°48' W 122°24'1 1.4
2017-Sep-25 13:01N 37°49' W 122°25'611.5
2017-Sep-25 12:31N 37°48' W 122°32'815.1
2017-Sep-25 12:00N 37°46' W 122°41'510.6
2017-Sep-25 11:30N 37°47' W 122°48'510.3
2017-Sep-25 11:00N 37°50' W 122°53'510.3
2017-Sep-25 10:30N 37°52' W 122°59'510.4
2017-Sep-25 10:00N 37°55' W 123°05'510.2
2017-Sep-25 09:30N 37°58' W 123°10'510.2
2017-Sep-25 09:00N 38°01' W 123°15'510.2
2017-Sep-25 08:30N 38°05' W 123°19'510.5
2017-Sep-25 08:01N 38°09' W 123°23'817.0
2017-Sep-25 07:31N 38°16' W 123°29'917.7
2017-Sep-25 07:01N 38°24' W 123°35'918.2
2017-Sep-25 06:30N 38°32' W 123°41'918.3
2017-Sep-25 06:00N 38°40' W 123°46'917.5
2017-Sep-25 05:31N 38°47' W 123°52'1019.6
2017-Sep-25 05:01N 38°56' W 123°58'35020.7
2017-Sep-24 12:09N 44°42' W 125°05'2021.5
2017-Sep-24 11:14N 45°02' W 125°07'721.2
2017-Sep-24 10:55N 45°08' W 125°07'921.5
2017-Sep-24 10:31N 45°17' W 125°04'1121.4
2017-Sep-24 10:01N 45°27' W 125°04'1121.4
2017-Sep-24 09:31N 45°38' W 125°07'1221.6
2017-Sep-24 08:57N 45°50' W 125°09'1021.6
2017-Sep-24 08:30N 45°59' W 125°10'1121.6
2017-Sep-24 08:01N 46°10' W 125°11'1121.5
2017-Sep-24 07:31N 46°21' W 125°12'1121.1
2017-Sep-24 07:00N 46°31' W 125°13'1121.4
2017-Sep-24 06:30N 46°42' W 125°13'1121.7
2017-Sep-24 06:01N 46°53' W 125°14'1121.6
2017-Sep-24 05:29N 47°04' W 125°15'5321.0
2017-Sep-24 02:58N 47°57' W 125°17'1120.4
2017-Sep-24 02:26N 48°07' W 125°13'921.0
2017-Sep-24 02:01N 48°16' W 125°10'5294.9
2017-Sep-24 02:00N 48°12' W 125°06'1427.8 170 / 51019.610.8 14.013.110.0
2017-Sep-24 01:30N 48°26' W 125°06'918.0
2017-Sep-24 01:00N 48°31' W 124°54'1019.4
2017-Sep-24 00:30N 48°30' W 124°40'1019.5
2017-Sep-24 00:00N 48°26' W 124°26'918.8
2017-Sep-23 23:30N 48°22' W 124°13'1019.0
2017-Sep-23 23:00N 48°19' W 123°60'1019.3
2017-Sep-23 22:30N 48°17' W 123°46'918.7
2017-Sep-23 22:00N 48°16' W 123°32'816.1
2017-Sep-23 21:30N 48°22' W 123°25'3 5.4
2017-Sep-23 20:59N 48°25' W 123°24'0 0.0
2017-Sep-23 20:29N 48°25' W 123°24'0 0.0
2017-Sep-23 19:59N 48°25' W 123°24'68 5.7
2017-Sep-23 08:00N 48°24' W 125°06'33318.5 150 / 71017.810.8 13.012.114.0
2017-Sep-22 14:00N 52°00' W 131°42'38811.4 270 / 101019.8 5.4 13.012.114.0
2017-Sep-21 04:07N 58°08' W 135°13'4 8.4
2017-Sep-21 03:37N 58°10' W 135°21'2 8.2
2017-Sep-21 03:21N 58°10' W 135°25'129 3.0
2017-Sep-19 09:00N 56°06' W 134°18'14123.6 180 / 51006.8 5.4 12.0 7.912.0
2017-Sep-19 03:00N 55°36' W 130°12'67 4.9 240 / 51005.8 5.4 12.0 7.912.0
2017-Sep-18 13:19N 54°39' W 131°14'722.0
2017-Sep-18 13:00N 54°32' W 131°15'1223.7
2017-Sep-18 12:30N 54°21' W 131°06'1222.9
2017-Sep-18 12:00N 54°10' W 131°01'1122.3
2017-Sep-18 11:31N 53°59' W 130°59'1121.8
2017-Sep-18 11:00N 53°48' W 130°58'11422.7
2017-Sep-18 06:00N 52°00' W 130°00'8521.2 240 / 161002.710.8 12.0 7.915.0
2017-Sep-18 02:00N 50°42' W 129°06'80 9.9 250 / 151004.310.8 12.0 6.816.0
2017-Sep-17 18:00N 49°24' W 128°42'6917.2 290 / 301005.010.8 13.5 8.516.0
2017-Sep-17 14:00N 48°18' W 128°12'13819.7 310 / 321014.2 5.4 14.512.718.0
2017-Sep-17 07:00N 46°06' W 127°12'2525.4 230 / 211014.010.8 17.011.520.0
2017-Sep-17 06:00N 45°42' W 127°00'7518.8 260 / 151014.010.8 17.011.520.0
2017-Sep-17 02:00N 44°30' W 126°30'15819.7 330 / 101015.310.8 17.513.117.0
2017-Sep-16 18:00N 42°00' W 125°24'   360 / 251015.010.8 16.513.917.0

Dump ship's entire track history